Time;durP1;ratioP1;P1;durP2;ratioP2;P2;SDS_P1;SDS_P2;PMS_P1;PMS_P2;Temp;Humidity;BMP_temperature;BMP_pressure;BME280_temperature;BME280_humidity;BME280_pressure;Samples;Min_cycle;Max_cycle;Signal;HPM_P1;HPM_P2
2023/12/10 00:04:03;;;;;;;44.70;25.40;;;;;;;-0.99;94.25;99006.17;218474;1259;141172;-65
2023/12/10 00:09:07;;;;;;;49.10;26.20;;;;;;;-0.93;94.49;98999.01;219250;1257;141753;-65
2023/12/10 00:14:11;;;;;;;47.10;26.60;;;;;;;-0.87;94.67;98997.23;219460;1257;140047;-65
2023/12/10 00:19:16;;;;;;;61.00;28.30;;;;;;;-0.79;94.82;98990.75;218993;1257;140944;-65
2023/12/10 00:24:22;;;;;;;54.80;29.50;;;;;;;-0.71;94.46;98992.16;219222;1257;139516;-65
2023/12/10 00:29:26;;;;;;;45.60;24.80;;;;;;;-0.63;94.64;98989.23;219188;1257;139255;-66
2023/12/10 00:34:30;;;;;;;53.30;28.00;;;;;;;-0.56;94.65;98985.17;220338;1257;139797;-66
2023/12/10 00:39:37;;;;;;;52.50;27.70;;;;;;;-0.49;94.31;98990.47;219444;1256;139994;-65
2023/12/10 00:44:42;;;;;;;60.60;29.00;;;;;;;-0.41;94.41;98994.23;218776;1257;139862;-65
2023/12/10 00:49:46;;;;;;;52.60;26.20;;;;;;;-0.36;94.19;98987.21;220447;1257;139907;-67
2023/12/10 00:54:51;;;;;;;51.40;25.90;;;;;;;-0.32;94.32;98989.20;220375;1257;139785;-66
2023/12/10 00:59:55;;;;;;;51.50;27.00;;;;;;;-0.26;94.43;98984.58;219087;1256;139636;-66
2023/12/10 01:05:00;;;;;;;41.90;20.40;;;;;;;-0.21;94.38;98973.39;219923;1257;140051;-65
2023/12/10 01:10:05;;;;;;;45.70;25.00;;;;;;;-0.16;94.06;98965.23;218799;1257;139196;-65
2023/12/10 01:15:10;;;;;;;48.40;23.80;;;;;;;-0.14;94.08;98957.09;219564;1257;139468;-65
2023/12/10 01:20:16;;;;;;;51.60;27.20;;;;;;;-0.16;93.80;98945.98;218282;1257;141366;-64
2023/12/10 01:25:21;;;;;;;52.50;29.20;;;;;;;-0.20;93.82;98947.17;218909;1259;140359;-64
2023/12/10 01:30:25;;;;;;;42.20;22.00;;;;;;;-0.23;93.62;98945.78;219977;1256;139526;-66
2023/12/10 01:35:30;;;;;;;46.30;26.00;;;;;;;-0.25;93.38;98943.77;218378;1260;140073;-64
2023/12/10 01:40:35;;;;;;;46.30;23.50;;;;;;;-0.27;93.30;98935.73;217890;1257;139483;-65
2023/12/10 01:45:40;;;;;;;54.30;30.30;;;;;;;-0.33;93.35;98933.13;218856;1256;141223;-65
2023/12/10 01:50:47;;;;;;;46.90;25.20;;;;;;;-0.40;93.18;98925.30;218088;1260;139876;-65
2023/12/10 01:55:52;;;;;;;47.10;23.90;;;;;;;-0.46;93.25;98919.81;218333;1258;151332;-66
2023/12/10 02:00:57;;;;;;;47.00;27.70;;;;;;;-0.51;93.08;98916.25;218029;1260;139708;-65
2023/12/10 02:06:02;;;;;;;52.10;27.80;;;;;;;-0.57;93.07;98904.38;218510;1260;139742;-66
2023/12/10 02:11:06;;;;;;;54.30;27.60;;;;;;;-0.61;93.05;98906.27;218422;1258;140726;-66
2023/12/10 02:16:12;;;;;;;50.40;28.00;;;;;;;-0.67;93.09;98901.17;218068;1260;140738;-65
2023/12/10 02:21:16;;;;;;;50.70;23.90;;;;;;;-0.72;93.31;98890.96;219033;1257;139963;-66
2023/12/10 02:26:21;;;;;;;48.00;27.00;;;;;;;-0.75;93.29;98882.95;218926;1260;140958;-64
2023/12/10 02:31:26;;;;;;;48.50;26.80;;;;;;;-0.76;93.50;98877.63;219290;1256;139626;-66
2023/12/10 02:36:30;;;;;;;61.00;29.00;;;;;;;-0.74;93.46;98890.02;218290;1257;139337;-65
2023/12/10 02:41:35;;;;;;;42.90;22.20;;;;;;;-0.74;93.30;98886.70;220081;1260;140294;-66
2023/12/10 02:46:44;;;;;;;48.80;26.40;;;;;;;-0.75;93.32;98878.81;219899;1256;140964;-65
2023/12/10 02:51:48;;;;;;;49.30;26.30;;;;;;;-0.77;93.08;98876.54;219556;1257;140005;-66
2023/12/10 02:56:53;;;;;;;55.30;27.90;;;;;;;-0.79;92.73;98870.58;218496;1258;139768;-66
2023/12/10 03:01:57;;;;;;;62.10;29.60;;;;;;;-0.84;92.84;98877.98;219373;1260;141745;-65
2023/12/10 03:07:03;;;;;;;51.30;30.30;;;;;;;-0.88;92.65;98871.46;220515;1256;139713;-66
2023/12/10 03:12:07;;;;;;;57.30;34.10;;;;;;;-0.93;92.70;98875.02;219701;1256;140962;-65
2023/12/10 03:17:11;;;;;;;59.40;28.60;;;;;;;-0.97;92.73;98884.21;219231;1260;139901;-66
2023/12/10 03:22:15;;;;;;;49.30;29.80;;;;;;;-1.02;92.41;98887.41;218632;1257;139675;-65
2023/12/10 03:27:18;;;;;;;56.60;31.40;;;;;;;-1.09;92.36;98884.92;218989;1258;139843;-66
2023/12/10 03:32:23;;;;;;;57.30;32.50;;;;;;;-1.21;91.97;98880.42;218326;1258;140001;-66
2023/12/10 03:37:27;;;;;;;59.80;27.90;;;;;;;-1.30;92.22;98882.75;218767;1258;140518;-66
2023/12/10 03:42:31;;;;;;;76.20;38.20;;;;;;;-1.39;92.15;98869.30;218554;1257;139671;-65
2023/12/10 03:47:36;;;;;;;57.90;31.90;;;;;;;-1.48;92.23;98857.46;218220;1257;139672;-66
2023/12/10 03:52:41;;;;;;;56.20;30.30;;;;;;;-1.52;92.68;98864.08;218385;1257;140594;-65
2023/12/10 03:57:48;;;;;;;64.50;29.60;;;;;;;-1.56;92.87;98871.55;218282;1260;139987;-66
2023/12/10 04:02:53;;;;;;;62.50;33.50;;;;;;;-1.60;92.84;98867.64;218468;1257;140129;-64
2023/12/10 04:07:57;;;;;;;70.50;38.10;;;;;;;-1.64;92.84;98871.69;219229;1256;140344;-66
2023/12/10 04:13:03;;;;;;;58.80;32.80;;;;;;;-1.65;92.73;98868.08;218231;1257;140831;-65
2023/12/10 04:18:07;;;;;;;65.60;34.10;;;;;;;-1.70;92.67;98879.18;218544;1257;140149;-65
2023/12/10 04:23:12;;;;;;;59.80;31.60;;;;;;;-1.72;92.82;98878.58;219051;1258;140214;-65
2023/12/10 04:28:16;;;;;;;61.70;32.70;;;;;;;-1.75;93.06;98871.19;218611;1257;139806;-65
2023/12/10 04:33:20;;;;;;;57.40;30.50;;;;;;;-1.73;93.16;98869.95;219419;1257;141912;-64
2023/12/10 04:38:25;;;;;;;64.50;33.60;;;;;;;-1.73;93.28;98863.81;218262;1256;139819;-66
2023/12/10 04:43:29;;;;;;;77.20;34.90;;;;;;;-1.72;93.40;98863.62;220412;1257;140620;-65
2023/12/10 04:48:32;;;;;;;55.00;31.50;;;;;;;-1.72;93.21;98871.42;220337;1256;140129;-65
2023/12/10 04:53:37;;;;;;;49.20;25.20;;;;;;;-1.72;93.18;98865.81;220166;1256;140396;-66
2023/12/10 04:58:41;;;;;;;57.00;29.30;;;;;;;-1.72;92.95;98864.20;220342;1256;140417;-67
2023/12/10 05:03:45;;;;;;;55.00;29.40;;;;;;;-1.68;92.98;98871.72;220325;1257;140336;-67
2023/12/10 05:08:50;;;;;;;47.70;26.80;;;;;;;-1.63;92.92;98879.52;219994;1257;140818;-65
2023/12/10 05:13:55;;;;;;;57.10;31.50;;;;;;;-1.63;92.60;98882.95;219687;1256;141506;-66
2023/12/10 05:18:59;;;;;;;52.50;27.50;;;;;;;-1.61;92.75;98891.78;219139;1257;140585;-66
2023/12/10 05:24:03;;;;;;;59.50;32.50;;;;;;;-1.59;92.58;98900.81;219038;1257;140884;-65
2023/12/10 05:29:07;;;;;;;62.10;32.50;;;;;;;-1.61;92.58;98903.48;218497;1256;140759;-65
2023/12/10 05:34:11;;;;;;;45.40;23.00;;;;;;;-1.62;92.77;98895.71;218921;1258;140155;-66
2023/12/10 05:39:17;;;;;;;64.90;28.30;;;;;;;-1.61;92.70;98892.48;218303;1257;140849;-65
2023/12/10 05:44:22;;;;;;;57.90;28.70;;;;;;;-1.61;92.67;98902.73;218308;1256;140147;-65
2023/12/10 05:49:27;;;;;;;46.00;27.90;;;;;;;-1.62;92.68;98903.54;217847;1260;140205;-65
2023/12/10 05:54:31;;;;;;;41.70;22.80;;;;;;;-1.65;92.55;98921.17;218622;1257;141509;-64
2023/12/10 05:59:37;;;;;;;54.70;27.00;;;;;;;-1.70;92.61;98913.31;218912;1256;139868;-65
2023/12/10 06:04:43;;;;;;;47.90;25.00;;;;;;;-1.73;92.42;98914.58;218608;1257;140143;-65
2023/12/10 06:09:48;;;;;;;44.80;24.50;;;;;;;-1.74;92.47;98930.19;218730;1258;140325;-66
2023/12/10 06:14:53;;;;;;;44.50;23.50;;;;;;;-1.76;92.43;98928.83;218745;1257;139970;-64
2023/12/10 06:19:57;;;;;;;58.10;30.60;;;;;;;-1.79;92.47;98928.23;217611;1256;139562;-64
2023/12/10 06:25:02;;;;;;;51.70;27.30;;;;;;;-1.79;92.29;98932.52;219032;1256;140245;-65
2023/12/10 06:30:10;;;;;;;52.50;22.70;;;;;;;-1.80;92.23;98926.86;218268;1257;139840;-64
2023/12/10 06:35:15;;;;;;;46.30;26.10;;;;;;;-1.83;92.38;98924.37;220056;1256;140195;-63
2023/12/10 06:40:20;;;;;;;47.60;24.70;;;;;;;-1.79;92.57;98933.72;218700;1257;139956;-63
2023/12/10 06:45:25;;;;;;;43.80;23.30;;;;;;;-1.75;92.43;98936.36;219563;1256;142129;-64
2023/12/10 06:50:32;;;;;;;45.20;25.30;;;;;;;-1.71;92.49;98947.61;220271;1257;141918;-66
2023/12/10 06:55:37;;;;;;;42.90;21.30;;;;;;;-1.67;92.28;98960.29;220369;1256;140410;-65
2023/12/10 07:00:41;;;;;;;41.20;22.90;;;;;;;-1.66;92.29;98961.16;219203;1256;139678;-66
2023/12/10 07:05:46;;;;;;;45.00;24.70;;;;;;;-1.63;92.21;98969.09;219458;1256;140419;-66
2023/12/10 07:10:50;;;;;;;46.00;24.50;;;;;;;-1.58;92.18;98968.55;218612;1257;140536;-65
2023/12/10 07:15:55;;;;;;;44.30;24.90;;;;;;;-1.52;92.06;98964.80;218351;1256;140310;-66
2023/12/10 07:21:00;;;;;;;41.50;22.80;;;;;;;-1.52;92.02;98967.66;218780;1256;140327;-65
2023/12/10 07:26:05;;;;;;;44.30;21.80;;;;;;;-1.50;91.89;98968.66;217811;1257;777870;-66
2023/12/10 07:31:10;;;;;;;42.90;21.70;;;;;;;-1.45;91.93;98974.70;218833;1256;140713;-63
2023/12/10 07:36:15;;;;;;;42.20;24.30;;;;;;;-1.42;91.94;98977.64;219389;1256;140182;-64
2023/12/10 07:41:21;;;;;;;44.80;24.70;;;;;;;-1.37;92.10;98980.63;217678;1256;140156;-63
2023/12/10 07:46:26;;;;;;;46.20;25.60;;;;;;;-1.30;91.92;98987.14;217934;1260;140736;-64
2023/12/10 07:51:30;;;;;;;37.80;18.90;;;;;;;-1.24;91.78;98984.34;218984;1260;139689;-64
2023/12/10 07:56:36;;;;;;;37.10;21.30;;;;;;;-1.14;92.05;98982.30;218029;1256;140806;-65
2023/12/10 08:01:40;;;;;;;40.90;21.60;;;;;;;-1.02;92.18;98981.21;219099;1256;140743;-65
2023/12/10 08:06:45;;;;;;;38.80;21.80;;;;;;;-0.89;91.71;98979.73;217968;1257;139924;-63
2023/12/10 08:11:49;;;;;;;42.40;21.60;;;;;;;-0.78;91.72;98978.08;218316;1256;140910;-64
2023/12/10 08:16:54;;;;;;;37.70;20.60;;;;;;;-0.72;91.35;98988.48;218755;1256;140302;-64
2023/12/10 08:21:58;;;;;;;36.70;19.50;;;;;;;-0.66;91.27;98994.61;219332;1256;140222;-63
2023/12/10 08:27:03;;;;;;;44.40;23.00;;;;;;;-0.59;91.26;98993.79;219258;1256;140172;-64
2023/12/10 08:32:07;;;;;;;43.90;22.70;;;;;;;-0.46;91.03;99001.86;219286;1257;140306;-65
2023/12/10 08:37:11;;;;;;;35.50;21.60;;;;;;;-0.36;91.00;99001.84;218963;1257;140911;-64
2023/12/10 08:42:16;;;;;;;39.70;22.40;;;;;;;-0.29;90.86;99004.92;219917;1256;140372;-65
2023/12/10 08:47:20;;;;;;;42.40;22.20;;;;;;;-0.26;90.96;98998.36;219057;1256;141723;-65
2023/12/10 08:52:25;;;;;;;43.70;24.80;;;;;;;-0.18;90.84;98998.38;220519;1256;140335;-65
2023/12/10 08:57:30;;;;;;;45.10;24.30;;;;;;;-0.12;90.79;99003.73;219346;1256;142163;-64
2023/12/10 09:02:35;;;;;;;33.40;16.70;;;;;;;-0.04;90.63;99007.91;220154;1256;141430;-65
2023/12/10 09:07:39;;;;;;;31.30;19.80;;;;;;;0.01;90.21;99016.08;219297;1256;139993;-66
2023/12/10 09:12:43;;;;;;;39.80;21.50;;;;;;;0.03;90.32;99010.18;220253;1256;140276;-65
2023/12/10 09:17:47;;;;;;;43.30;21.50;;;;;;;0.09;90.07;99011.73;218788;1256;139923;-63
2023/12/10 09:22:52;;;;;;;28.50;15.40;;;;;;;0.11;90.33;99017.85;218719;1257;139429;-65
2023/12/10 09:27:56;;;;;;;33.50;18.40;;;;;;;0.15;90.07;99022.98;218078;1257;139568;-65
2023/12/10 09:33:01;;;;;;;39.10;20.90;;;;;;;0.16;90.50;99020.23;218869;1257;139953;-64
2023/12/10 09:38:06;;;;;;;37.40;21.40;;;;;;;0.24;90.47;99024.42;218230;1256;140751;-65
2023/12/10 09:43:11;;;;;;;37.70;18.50;;;;;;;0.31;90.13;99024.92;218811;1256;139653;-64
2023/12/10 09:48:17;;;;;;;38.80;20.20;;;;;;;0.36;89.86;99024.91;217992;1256;140094;-65
2023/12/10 09:53:22;;;;;;;37.80;21.00;;;;;;;0.42;90.13;99016.55;218157;1257;140584;-64
2023/12/10 09:58:28;;;;;;;38.60;21.20;;;;;;;0.46;90.18;99014.34;218176;1257;142064;-64
2023/12/10 10:03:37;;;;;;;35.40;19.00;;;;;;;0.46;89.85;99011.36;218146;1260;140430;-62
2023/12/10 10:08:42;;;;;;;43.70;20.70;;;;;;;0.46;90.17;99012.49;219018;1256;141124;-64
2023/12/10 10:13:54;;;;;;;36.40;20.30;;;;;;;0.58;90.32;99009.25;217955;1260;140084;-63
2023/12/10 10:19:02;;;;;;;43.40;24.60;;;;;;;0.70;90.01;99001.48;218933;1257;139914;-65
2023/12/10 10:24:08;;;;;;;44.30;23.10;;;;;;;0.79;90.23;99003.38;218403;1257;139685;-65
2023/12/10 10:29:13;;;;;;;44.40;24.70;;;;;;;0.84;89.95;99000.11;219518;1256;140709;-66
2023/12/10 10:34:18;;;;;;;38.40;22.90;;;;;;;0.95;89.97;99006.04;220117;1256;140116;-66
2023/12/10 10:39:23;;;;;;;34.20;18.50;;;;;;;1.12;89.98;98996.64;220159;1256;139821;-68
2023/12/10 10:44:27;;;;;;;41.20;22.50;;;;;;;1.24;89.90;98992.33;219341;1256;139998;-69
2023/12/10 10:49:35;;;;;;;39.00;21.70;;;;;;;1.35;89.40;98986.19;218754;1256;139503;-68
2023/12/10 10:54:44;;;;;;;32.00;17.00;;;;;;;1.40;89.33;98983.48;220405;1257;141948;-69
2023/12/10 10:59:50;;;;;;;39.30;22.10;;;;;;;1.44;89.41;98985.39;219963;1256;141844;-70
2023/12/10 11:04:57;;;;;;;37.50;20.70;;;;;;;1.48;89.21;98990.79;218165;1260;139491;-68
2023/12/10 11:10:05;;;;;;;40.90;23.70;;;;;;;1.53;89.35;98994.92;218989;1256;140765;-68
2023/12/10 11:15:18;;;;;;;49.50;25.30;;;;;;;1.57;89.40;99000.80;217983;1256;140756;-69
2023/12/10 11:20:38;;;;;;;45.10;24.70;;;;;;;1.63;89.12;99000.14;217642;1256;161321;-66
2023/12/10 11:25:44;;;;;;;37.90;22.00;;;;;;;1.67;89.31;99009.11;219324;1256;139652;-67
2023/12/10 11:30:50;;;;;;;40.20;22.80;;;;;;;1.75;89.27;99016.79;218516;1256;139938;-66
2023/12/10 11:35:58;;;;;;;35.30;22.30;;;;;;;1.83;89.24;99014.91;219019;1256;140422;-66
2023/12/10 11:41:23;;;;;;;38.20;20.90;;;;;;;1.87;89.03;99013.98;218861;1257;139728;-66
2023/12/10 11:46:27;;;;;;;35.30;19.50;;;;;;;1.89;88.78;99013.95;218716;1256;139917;-64
2023/12/10 11:51:44;;;;;;;37.10;23.30;;;;;;;1.82;88.79;99014.83;218442;1257;141412;-65
2023/12/10 11:56:52;;;;;;;36.40;24.00;;;;;;;1.78;88.71;99010.81;218088;1256;141831;-66
2023/12/10 12:01:57;;;;;;;28.60;16.10;;;;;;;1.75;88.77;99010.75;218450;1257;139363;-65
2023/12/10 12:07:02;;;;;;;37.40;20.40;;;;;;;1.72;88.87;99019.64;219322;1256;139955;-66
2023/12/10 12:12:08;;;;;;;39.00;20.40;;;;;;;1.77;89.06;99022.21;217671;1257;139543;-69
2023/12/10 12:17:18;;;;;;;34.70;19.30;;;;;;;1.76;88.98;99023.54;218986;1256;139500;-67
2023/12/10 12:22:24;;;;;;;35.60;21.10;;;;;;;1.70;88.56;99030.77;218531;1257;140319;-67
2023/12/10 12:27:37;;;;;;;41.80;20.50;;;;;;;1.64;89.00;99026.87;217637;1260;140794;-67
2023/12/10 12:32:48;;;;;;;31.80;20.00;;;;;;;1.62;88.95;99029.96;217720;1260;141210;-64
2023/12/10 12:37:54;;;;;;;29.80;16.50;;;;;;;1.59;89.22;99032.45;218766;1256;140761;-64
2023/12/10 12:43:01;;;;;;;28.60;17.80;;;;;;;1.55;89.18;99034.90;217987;1256;139357;-64
2023/12/10 12:48:06;;;;;;;28.60;17.30;;;;;;;1.53;89.62;99033.08;220553;1256;139768;-65
2023/12/10 12:53:11;;;;;;;32.70;17.40;;;;;;;1.48;89.43;99033.70;220764;1255;139753;-66
2023/12/10 12:58:16;;;;;;;26.10;16.00;;;;;;;1.48;89.50;99034.02;220524;1255;140043;-68
2023/12/10 13:03:21;;;;;;;31.30;17.50;;;;;;;1.52;89.52;99036.23;220029;1255;141080;-69
2023/12/10 13:08:27;;;;;;;32.30;18.20;;;;;;;1.48;89.27;99041.30;220269;1255;139862;-68
2023/12/10 13:13:34;;;;;;;27.30;14.70;;;;;;;1.47;89.63;99032.77;219101;1256;139995;-68
2023/12/10 13:18:39;;;;;;;24.70;15.50;;;;;;;1.48;89.47;99037.06;217624;1258;140063;-69
2023/12/10 13:23:43;;;;;;;28.20;15.90;;;;;;;1.42;89.52;99036.93;218338;1259;139419;-68
2023/12/10 13:28:50;;;;;;;34.70;16.80;;;;;;;1.38;89.87;99034.92;217827;1259;139547;-69
2023/12/10 13:33:59;;;;;;;32.30;16.00;;;;;;;1.34;89.65;99035.23;218037;1257;139733;-66
2023/12/10 13:39:04;;;;;;;28.00;17.90;;;;;;;1.32;90.05;99033.55;218211;1256;139506;-65
2023/12/10 13:44:08;;;;;;;24.20;13.80;;;;;;;1.30;90.22;99041.09;218197;1257;139859;-67
2023/12/10 13:49:17;;;;;;;24.00;15.60;;;;;;;1.22;90.19;99035.63;219211;1256;141487;-66
2023/12/10 13:54:22;;;;;;;25.10;14.20;;;;;;;1.20;90.61;99036.79;218482;1257;139800;-63
2023/12/10 13:59:26;;;;;;;23.40;15.70;;;;;;;1.19;90.96;99044.86;218272;1257;139956;-64
2023/12/10 14:04:31;;;;;;;26.50;15.80;;;;;;;1.16;90.87;99050.70;218243;1257;139472;-65
2023/12/10 14:09:36;;;;;;;23.30;14.00;;;;;;;1.15;90.84;99056.06;218153;1257;140517;-64
2023/12/10 14:14:41;;;;;;;19.70;13.30;;;;;;;1.12;91.02;99052.56;218343;1257;140411;-65
2023/12/10 14:19:46;;;;;;;22.40;14.70;;;;;;;1.08;91.14;99053.16;218068;1257;139552;-65
2023/12/10 14:24:52;;;;;;;23.80;14.00;;;;;;;1.05;91.38;99050.00;217997;1257;140413;-65
2023/12/10 14:29:59;;;;;;;22.80;14.10;;;;;;;1.01;91.53;99051.98;219125;1257;139727;-65
2023/12/10 14:35:03;;;;;;;30.60;16.70;;;;;;;1.01;91.99;99050.98;219508;1257;139665;-66
2023/12/10 14:40:10;;;;;;;20.20;11.80;;;;;;;1.02;91.83;99059.10;218173;1257;140364;-66
2023/12/10 14:45:18;;;;;;;30.30;20.10;;;;;;;1.00;91.45;99063.52;218152;1257;140093;-64
2023/12/10 14:50:24;;;;;;;28.20;14.90;;;;;;;0.97;91.94;99064.19;219010;1257;140123;-63
2023/12/10 14:55:29;;;;;;;29.60;17.20;;;;;;;0.95;91.95;99060.45;219167;1260;139529;-63
2023/12/10 15:00:34;;;;;;;32.10;17.60;;;;;;;0.98;92.17;99061.89;218306;1259;140090;-63
2023/12/10 15:05:42;;;;;;;29.20;16.10;;;;;;;0.98;92.03;99057.30;218851;1256;139531;-64
2023/12/10 15:10:50;;;;;;;23.50;15.20;;;;;;;0.97;92.09;99069.14;218577;1260;139868;-66
2023/12/10 15:15:55;;;;;;;33.00;18.00;;;;;;;0.94;92.27;99073.55;218906;1253;139867;-66
2023/12/10 15:20:59;;;;;;;32.70;17.40;;;;;;;0.92;92.57;99065.95;218648;1258;205794;-63
2023/12/10 15:26:04;;;;;;;38.30;20.80;;;;;;;0.89;92.51;99068.90;218721;1258;140379;-64
2023/12/10 15:31:10;;;;;;;48.10;18.00;;;;;;;0.91;92.63;99070.27;219057;1256;139524;-66
2023/12/10 15:36:18;;;;;;;30.80;15.30;;;;;;;0.88;92.87;99070.39;217935;1254;140742;-65
2023/12/10 15:41:23;;;;;;;29.90;18.30;;;;;;;0.90;93.42;99078.11;219473;1254;140315;-67
2023/12/10 15:46:28;;;;;;;29.30;18.00;;;;;;;0.90;93.17;99083.13;218760;1257;139422;-67
2023/12/10 15:51:33;;;;;;;28.00;16.20;;;;;;;0.91;93.49;99079.89;218883;1259;139716;-66
2023/12/10 15:56:41;;;;;;;23.60;15.80;;;;;;;0.94;93.53;99081.15;218625;1254;139873;-66
2023/12/10 16:01:48;;;;;;;30.50;18.50;;;;;;;0.98;93.88;99073.76;219009;1257;140005;-67
2023/12/10 16:06:54;;;;;;;230.30;106.20;;;;;;;1.00;93.88;99079.75;218840;1254;139392;-65
2023/12/10 16:11:59;;;;;;;44.10;30.20;;;;;;;1.03;93.95;99078.77;218491;1254;232611;-64
2023/12/10 16:17:07;;;;;;;31.40;20.20;;;;;;;1.05;94.10;99079.35;218794;1257;139999;-64
2023/12/10 16:22:12;;;;;;;25.70;16.60;;;;;;;1.07;94.20;99088.21;218175;1257;140367;-65
2023/12/10 16:27:19;;;;;;;21.70;13.10;;;;;;;1.06;94.02;99087.80;219675;1258;139442;-66
2023/12/10 16:32:28;;;;;;;21.00;14.30;;;;;;;1.07;93.98;99090.19;220184;1254;139776;-64
2023/12/10 16:37:31;;;;;;;27.10;16.20;;;;;;;1.10;94.19;99085.17;218265;1259;140008;-67
2023/12/10 16:42:35;;;;;;;22.10;15.50;;;;;;;1.15;94.48;99085.66;218376;1255;140619;-67
2023/12/10 16:47:44;;;;;;;25.70;15.20;;;;;;;1.17;94.18;99082.48;220278;1254;139563;-66
2023/12/10 16:52:48;;;;;;;25.80;14.30;;;;;;;1.18;94.75;99080.44;219149;1254;139474;-68
2023/12/10 16:57:53;;;;;;;23.30;15.90;;;;;;;1.21;94.30;99077.92;220091;1254;140048;-67
2023/12/10 17:02:58;;;;;;;24.40;16.40;;;;;;;1.22;94.32;99077.23;218182;1259;140351;-65
2023/12/10 17:08:03;;;;;;;29.70;16.00;;;;;;;1.25;94.55;99082.08;220384;1254;139559;-67
2023/12/10 17:13:08;;;;;;;24.80;15.00;;;;;;;1.27;94.59;99081.82;219864;1254;140499;-67
2023/12/10 17:18:14;;;;;;;26.30;16.10;;;;;;;1.29;94.63;99075.05;218713;1254;139672;-67
2023/12/10 17:23:19;;;;;;;28.30;15.50;;;;;;;1.29;94.49;99073.07;218248;1258;139413;-65
2023/12/10 17:28:25;;;;;;;23.40;14.80;;;;;;;1.29;94.54;99073.88;218680;1254;139605;-67
2023/12/10 17:33:29;;;;;;;24.50;15.30;;;;;;;1.30;94.69;99076.43;218868;1254;139412;-67
2023/12/10 17:38:34;;;;;;;23.40;11.50;;;;;;;1.29;94.93;99080.34;219378;1258;140602;-68
2023/12/10 17:43:38;;;;;;;29.80;17.70;;;;;;;1.29;95.13;99075.45;218848;1260;139555;-67
2023/12/10 17:48:42;;;;;;;59.10;27.30;;;;;;;1.29;96.00;99067.18;218877;1254;140156;-67
2023/12/10 17:53:46;;;;;;;31.00;17.70;;;;;;;1.33;95.87;99065.91;219040;1254;139923;-67
2023/12/10 17:58:52;;;;;;;39.20;17.20;;;;;;;1.35;95.38;99063.98;218964;1254;139427;-66
2023/12/10 18:03:57;;;;;;;24.60;14.30;;;;;;;1.39;95.57;99057.27;218549;1258;139563;-67
2023/12/10 18:09:02;;;;;;;27.90;14.70;;;;;;;1.40;95.34;99055.70;218726;1258;141663;-67
2023/12/10 18:14:07;;;;;;;27.60;17.50;;;;;;;1.41;95.63;99049.29;220114;1259;140878;-68
2023/12/10 18:19:13;;;;;;;29.50;15.30;;;;;;;1.44;95.84;99047.34;218867;1255;139390;-67
2023/12/10 18:24:18;;;;;;;25.20;13.30;;;;;;;1.47;95.67;99040.16;219207;1254;142237;-67
2023/12/10 18:29:23;;;;;;;26.60;15.00;;;;;;;1.51;95.80;99039.66;219316;1256;139824;-68
2023/12/10 18:34:27;;;;;;;29.50;17.10;;;;;;;1.54;95.85;99037.88;219854;1254;139773;-68
2023/12/10 18:39:32;;;;;;;26.30;17.30;;;;;;;1.58;95.83;99030.21;219430;1258;141470;-67
2023/12/10 18:44:37;;;;;;;30.60;16.30;;;;;;;1.63;96.04;99027.42;219641;1255;140498;-67
2023/12/10 18:49:43;;;;;;;30.00;16.20;;;;;;;1.66;95.90;99022.96;219476;1254;139764;-68
2023/12/10 18:54:51;;;;;;;21.70;13.80;;;;;;;1.68;95.81;99020.06;219739;1259;140606;-66
2023/12/10 18:59:55;;;;;;;24.60;16.90;;;;;;;1.72;95.98;99010.90;220692;1254;140528;-68
2023/12/10 19:05:00;;;;;;;23.00;13.40;;;;;;;1.75;96.11;99006.15;220101;1254;140440;-68
2023/12/10 19:10:07;;;;;;;24.30;14.60;;;;;;;1.80;96.29;99004.40;220305;1259;139390;-67
2023/12/10 19:15:11;;;;;;;29.20;14.30;;;;;;;1.80;96.04;98996.36;218999;1254;140519;-67
2023/12/10 19:20:23;;;;;;;25.40;17.70;;;;;;;1.80;96.03;98995.63;219374;1254;140959;-68
2023/12/10 19:25:28;;;;;;;27.40;13.30;;;;;;;1.82;96.17;98982.09;218414;1254;140819;-66
2023/12/10 19:30:32;;;;;;;25.70;12.70;;;;;;;1.81;96.34;98984.11;218613;1260;264738;-66
2023/12/10 19:35:35;;;;;;;21.80;13.70;;;;;;;1.82;96.36;98980.91;218150;1254;139726;-67
2023/12/10 19:40:39;;;;;;;23.90;15.90;;;;;;;1.82;96.53;98973.23;218089;1258;139368;-67
2023/12/10 19:45:43;;;;;;;23.40;14.00;;;;;;;1.82;96.45;98970.89;219251;1254;140486;-67
2023/12/10 19:50:47;;;;;;;22.80;12.40;;;;;;;1.82;96.68;98970.56;218161;1259;139584;-67
2023/12/10 19:55:53;;;;;;;25.60;13.30;;;;;;;1.82;96.86;98973.11;218519;1259;140039;-67
2023/12/10 20:00:57;;;;;;;26.60;14.70;;;;;;;1.85;97.06;98977.35;218157;1258;140004;-68
2023/12/10 20:06:03;;;;;;;22.50;11.90;;;;;;;1.88;97.06;98979.02;219093;1259;140182;-66
2023/12/10 20:11:07;;;;;;;26.50;14.10;;;;;;;1.86;97.03;98973.63;218687;1258;140254;-67
2023/12/10 20:16:10;;;;;;;24.00;13.00;;;;;;;1.87;97.32;98965.39;218770;1258;139332;-67
2023/12/10 20:21:14;;;;;;;23.10;13.40;;;;;;;1.91;97.25;98965.33;219389;1258;140579;-66
2023/12/10 20:26:18;;;;;;;21.30;12.30;;;;;;;1.94;97.46;98968.89;219004;1256;140733;-67
2023/12/10 20:31:34;;;;;;;25.90;12.50;;;;;;;1.96;97.65;98960.78;218624;1255;139838;-67
2023/12/10 20:36:38;;;;;;;21.40;12.80;;;;;;;1.98;97.74;98960.21;220579;1254;140506;-66
2023/12/10 20:41:42;;;;;;;26.70;12.20;;;;;;;2.01;97.82;98957.45;218117;1254;139344;-66
2023/12/10 20:46:46;;;;;;;20.30;9.40;;;;;;;2.06;97.62;98953.36;220981;1254;139806;-68
2023/12/10 20:51:50;;;;;;;24.70;13.80;;;;;;;2.08;97.71;98940.40;220700;1257;140002;-67
2023/12/10 20:56:54;;;;;;;22.30;12.00;;;;;;;2.12;97.85;98938.54;219748;1257;139942;-67
2023/12/10 21:01:59;;;;;;;21.40;12.00;;;;;;;2.18;97.98;98939.17;220539;1254;140172;-67
2023/12/10 21:07:05;;;;;;;25.50;11.10;;;;;;;2.22;98.09;98927.62;217969;1257;140988;-69
2023/12/10 21:12:09;;;;;;;13.70;8.50;;;;;;;2.24;97.92;98925.43;218338;1254;139566;-67
2023/12/10 21:17:13;;;;;;;10.80;7.20;;;;;;;2.23;98.06;98927.41;218656;1258;140449;-67
2023/12/10 21:22:20;;;;;;;16.60;10.90;;;;;;;2.22;97.89;98919.81;219038;1254;139120;-68
2023/12/10 21:27:24;;;;;;;20.60;11.70;;;;;;;2.23;98.36;98917.59;219363;1254;140474;-67
2023/12/10 21:32:31;;;;;;;24.00;13.50;;;;;;;2.24;98.35;98914.55;218883;1254;140294;-66
2023/12/10 21:37:36;;;;;;;20.70;10.20;;;;;;;2.25;98.44;98906.26;218072;1260;139895;-66
2023/12/10 21:42:42;;;;;;;21.90;11.10;;;;;;;2.25;98.60;98899.46;218910;1254;139463;-66
2023/12/10 21:47:48;;;;;;;22.40;12.40;;;;;;;2.28;98.71;98901.21;218150;1259;139414;-66
2023/12/10 21:52:59;;;;;;;15.50;8.20;;;;;;;2.29;98.56;98892.63;218122;1254;140562;-65
2023/12/10 21:58:03;;;;;;;17.80;10.30;;;;;;;2.26;98.65;98882.80;218211;1254;140880;-65
2023/12/10 22:03:08;;;;;;;24.30;12.30;;;;;;;2.28;98.70;98880.54;218022;1257;139784;-66
2023/12/10 22:08:13;;;;;;;14.60;7.90;;;;;;;2.28;98.89;98879.08;217858;1257;139510;-65
2023/12/10 22:13:18;;;;;;;17.20;11.20;;;;;;;2.28;98.85;98868.27;218342;1254;141013;-65
2023/12/10 22:18:22;;;;;;;16.00;9.50;;;;;;;2.29;99.21;98865.33;218674;1254;139877;-67
2023/12/10 22:23:26;;;;;;;19.00;9.80;;;;;;;2.30;98.91;98859.38;218822;1254;139564;-65
2023/12/10 22:28:30;;;;;;;17.60;9.30;;;;;;;2.31;99.02;98855.17;219183;1255;139140;-66
2023/12/10 22:33:35;;;;;;;19.00;10.40;;;;;;;2.34;99.15;98850.96;219631;1258;140939;-67
2023/12/10 22:38:41;;;;;;;24.30;11.10;;;;;;;2.36;98.88;98849.10;218736;1258;141419;-67
2023/12/10 22:43:45;;;;;;;24.60;10.10;;;;;;;2.39;98.76;98841.46;220144;1254;139549;-67
2023/12/10 22:48:50;;;;;;;22.20;10.90;;;;;;;2.42;98.89;98841.86;219608;1254;140065;-69
2023/12/10 22:53:56;;;;;;;25.40;10.20;;;;;;;2.46;98.74;98842.04;219512;1254;140358;-69
2023/12/10 22:59:00;;;;;;;18.70;10.20;;;;;;;2.48;98.57;98841.48;220905;1254;142437;-69
2023/12/10 23:04:06;;;;;;;23.20;9.20;;;;;;;2.53;98.80;98840.41;219864;1254;141254;-67